Time;durP1;ratioP1;P1;durP2;ratioP2;P2;SDS_P1;SDS_P2;PMS_P1;PMS_P2;Temp;Humidity;BMP_temperature;BMP_pressure;BME280_temperature;BME280_humidity;BME280_pressure;Samples;Min_cycle;Max_cycle;Signal;HPM_P1;HPM_P2
2024/01/02 00:01:01;;;;;;;2.97;0.75;;;;;;;20.45;43.94;100003.13;5014925;28;116414;-79
2024/01/02 00:03:26;;;;;;;2.88;0.90;;;;;;;20.45;43.81;99995.19;5020452;28;105915;-80
2024/01/02 00:05:51;;;;;;;2.25;0.80;;;;;;;20.46;43.89;99988.94;5002893;28;97697;-80
2024/01/02 00:08:17;;;;;;;2.65;0.75;;;;;;;20.45;43.78;99981.94;5022702;28;125427;-79
2024/01/02 00:10:42;;;;;;;3.22;0.82;;;;;;;20.45;43.88;99979.28;5014928;28;98025;-79
2024/01/02 00:13:08;;;;;;;2.42;1.20;;;;;;;20.45;43.77;99977.50;5019424;28;97173;-79
2024/01/02 00:15:33;;;;;;;3.50;0.88;;;;;;;20.46;44.10;99962.47;5023410;28;97276;-78
2024/01/02 00:17:58;;;;;;;2.25;0.90;;;;;;;20.45;43.90;99951.00;5010920;28;107079;-78
2024/01/02 00:20:24;;;;;;;2.33;0.90;;;;;;;20.46;43.77;99950.09;4995023;28;97765;-78
2024/01/02 00:22:49;;;;;;;1.77;0.70;;;;;;;20.47;43.96;99943.84;5015538;28;96890;-78
2024/01/02 00:25:15;;;;;;;2.55;0.65;;;;;;;20.46;43.68;99923.63;5014903;28;129696;-78
2024/01/02 00:27:40;;;;;;;2.70;0.80;;;;;;;20.46;43.97;99920.09;5011953;28;97243;-78
2024/01/02 00:30:07;;;;;;;2.80;0.90;;;;;;;20.46;43.86;99907.72;5013795;28;96713;-78
2024/01/02 00:32:33;;;;;;;3.90;0.80;;;;;;;20.48;43.66;99904.97;5013764;28;98624;-78
2024/01/02 00:34:59;;;;;;;2.00;0.73;;;;;;;20.47;43.84;99900.63;5009804;28;97651;-78
2024/01/02 00:37:24;;;;;;;1.77;0.68;;;;;;;20.45;43.82;99892.75;5011601;28;97767;-78
2024/01/02 00:39:49;;;;;;;2.22;0.65;;;;;;;20.46;43.64;99889.19;4994718;28;97027;-78
2024/01/02 00:42:15;;;;;;;2.80;0.50;;;;;;;20.47;43.79;99875.00;5011820;28;97143;-78
2024/01/02 00:44:40;;;;;;;2.20;0.80;;;;;;;20.48;43.87;99859.94;4994258;28;96613;-79
2024/01/02 00:47:07;;;;;;;2.58;0.75;;;;;;;20.47;43.80;99845.00;5010969;28;118305;-78
2024/01/02 00:49:33;;;;;;;2.72;1.02;;;;;;;20.47;43.75;99832.59;5015806;28;96744;-78
2024/01/02 00:51:59;;;;;;;3.38;1.05;;;;;;;20.47;43.70;99823.81;5013315;28;96890;-78
2024/01/02 00:54:24;;;;;;;3.95;1.05;;;;;;;20.47;43.94;99808.78;5016766;28;96854;-78
2024/01/02 00:56:49;;;;;;;3.20;0.85;;;;;;;20.48;43.62;99797.25;5014156;28;127122;-78
2024/01/02 00:59:15;;;;;;;3.42;1.25;;;;;;;20.47;44.03;99792.88;4987579;28;104022;-79
2024/01/02 01:01:40;;;;;;;3.33;0.75;;;;;;;20.48;43.76;99788.44;5013400;28;119798;-78
2024/01/02 01:04:07;;;;;;;2.72;0.85;;;;;;;20.48;43.93;99772.53;4993395;28;102955;-79
2024/01/02 01:06:33;;;;;;;2.45;0.70;;;;;;;20.47;44.12;99763.75;5008685;28;99357;-79
2024/01/02 01:08:59;;;;;;;2.63;0.75;;;;;;;20.48;43.69;99757.53;4991477;28;97061;-79
2024/01/02 01:11:24;;;;;;;2.47;0.90;;;;;;;20.48;44.00;99754.00;4993112;28;97035;-78
2024/01/02 01:13:49;;;;;;;2.00;0.70;;;;;;;20.49;43.99;99737.19;4996419;28;122166;-79
2024/01/02 01:16:15;;;;;;;2.15;0.88;;;;;;;20.49;43.78;99713.34;5009363;28;99911;-79
2024/01/02 01:18:40;;;;;;;2.40;0.70;;;;;;;20.48;44.01;99722.22;4990628;28;117886;-79
2024/01/02 01:21:06;;;;;;;1.60;0.63;;;;;;;20.48;43.68;99707.19;5007348;27;96777;-79
2024/01/02 01:23:31;;;;;;;2.70;0.80;;;;;;;20.48;43.67;99683.38;5009778;28;98591;-79
2024/01/02 01:25:56;;;;;;;2.85;0.70;;;;;;;20.49;43.71;99692.16;4987048;28;97427;-79
2024/01/02 01:28:22;;;;;;;1.52;0.65;;;;;;;20.48;43.77;99671.88;5010950;28;97342;-79
2024/01/02 01:30:47;;;;;;;2.25;1.00;;;;;;;20.49;43.99;99666.53;5012812;28;111728;-78
2024/01/02 01:33:12;;;;;;;3.75;0.80;;;;;;;20.47;43.77;99657.78;4993521;28;117331;-79
2024/01/02 01:35:38;;;;;;;1.95;0.85;;;;;;;20.47;44.02;99643.69;4993536;28;99757;-79
2024/01/02 01:38:03;;;;;;;1.88;0.77;;;;;;;20.48;43.77;99634.81;5007617;28;96736;-79
2024/01/02 01:40:28;;;;;;;2.47;0.60;;;;;;;20.47;43.72;99617.22;4993164;28;118873;-79
2024/01/02 01:42:54;;;;;;;2.72;0.70;;;;;;;20.48;43.90;99616.25;5009243;28;125369;-79
2024/01/02 01:45:19;;;;;;;2.08;0.88;;;;;;;20.47;43.72;99618.06;5007880;28;129307;-79
2024/01/02 01:47:45;;;;;;;2.03;0.63;;;;;;;20.46;43.68;99602.25;5010084;28;96897;-79
2024/01/02 01:50:12;;;;;;;3.15;0.90;;;;;;;20.47;43.67;99588.09;5006558;28;97061;-79
2024/01/02 01:52:37;;;;;;;1.73;0.70;;;;;;;20.47;43.87;99588.94;5003049;28;100512;-79
2024/01/02 01:55:04;;;;;;;1.77;0.50;;;;;;;20.48;43.69;99585.38;5011683;28;96801;-79
2024/01/02 01:57:29;;;;;;;2.97;0.85;;;;;;;20.48;43.82;99577.41;5006867;28;96700;-79
2024/01/02 01:59:55;;;;;;;2.17;0.73;;;;;;;20.49;43.81;99560.56;5004175;28;97328;-79
2024/01/02 02:02:21;;;;;;;2.03;0.63;;;;;;;20.49;43.59;99559.72;5008449;28;98540;-78
2024/01/02 02:04:49;;;;;;;2.00;0.80;;;;;;;20.49;43.62;99544.69;4991543;28;98543;-78
2024/01/02 02:07:14;;;;;;;2.53;0.60;;;;;;;20.50;43.79;99543.75;5001897;28;97582;-79
2024/01/02 02:09:40;;;;;;;2.33;0.57;;;;;;;20.51;43.77;99541.97;5008330;28;96993;-78
2024/01/02 02:12:06;;;;;;;1.60;0.60;;;;;;;20.51;43.40;99523.41;5008081;28;99761;-78
2024/01/02 02:14:32;;;;;;;1.83;0.50;;;;;;;20.49;43.69;99517.34;5006773;28;97355;-79
2024/01/02 02:16:57;;;;;;;2.40;0.73;;;;;;;20.49;43.54;99496.16;5001038;28;96828;-79
2024/01/02 02:19:23;;;;;;;2.45;0.70;;;;;;;20.49;43.91;99493.50;4987451;28;97249;-79
2024/01/02 02:21:51;;;;;;;1.83;0.80;;;;;;;20.50;43.87;99476.69;5004768;28;98591;-78
2024/01/02 02:24:17;;;;;;;2.25;0.60;;;;;;;20.49;43.88;99475.81;5012370;28;97026;-78
2024/01/02 02:26:43;;;;;;;1.48;0.55;;;;;;;20.50;43.73;99466.94;5012609;28;97327;-78
2024/01/02 02:29:08;;;;;;;1.88;0.80;;;;;;;20.48;43.60;99445.00;5009616;28;103435;-79
2024/01/02 02:31:34;;;;;;;2.03;0.63;;;;;;;20.49;43.78;99443.19;5018167;28;99739;-78
2024/01/02 02:34:00;;;;;;;0.90;0.50;;;;;;;20.50;43.91;99431.66;4994876;28;97436;-78
2024/01/02 02:36:25;;;;;;;1.35;0.68;;;;;;;20.50;43.68;99427.22;5006477;28;97891;-78
2024/01/02 02:38:50;;;;;;;1.55;0.50;;;;;;;20.49;43.68;99416.69;5007111;28;97097;-78
2024/01/02 02:41:16;;;;;;;1.45;0.50;;;;;;;20.49;43.78;99416.69;4990203;28;125904;-79
2024/01/02 02:43:41;;;;;;;2.53;0.60;;;;;;;20.49;43.80;99406.09;4989305;28;127360;-78
2024/01/02 02:46:07;;;;;;;1.48;0.40;;;;;;;20.49;43.55;99401.66;5007645;28;96799;-78
2024/01/02 02:48:32;;;;;;;1.35;0.60;;;;;;;20.47;43.49;99382.34;5008209;28;115590;-78
2024/01/02 02:50:58;;;;;;;1.90;0.70;;;;;;;20.48;43.68;99375.25;4990224;28;128659;-78
2024/01/02 02:53:23;;;;;;;1.65;0.80;;;;;;;20.50;43.50;99370.75;4990064;28;98019;-78
2024/01/02 02:55:48;;;;;;;1.55;0.50;;;;;;;20.48;43.52;99368.19;5007388;28;97270;-78
2024/01/02 02:58:15;;;;;;;1.33;0.45;;;;;;;20.48;43.49;99360.22;5009607;28;98296;-78
2024/01/02 03:00:40;;;;;;;2.38;0.68;;;;;;;20.49;43.79;99345.19;5007395;28;96638;-78
2024/01/02 03:03:06;;;;;;;1.20;0.40;;;;;;;20.48;43.62;99323.16;4993244;28;126468;-78
2024/01/02 03:05:31;;;;;;;1.60;0.65;;;;;;;20.48;43.73;99309.91;4994454;28;96685;-78
2024/01/02 03:07:57;;;;;;;1.40;0.52;;;;;;;20.48;43.88;99309.03;5016420;28;96908;-78
2024/01/02 03:10:24;;;;;;;0.93;0.43;;;;;;;20.50;43.81;99297.44;5010145;28;97526;-78
2024/01/02 03:12:49;;;;;;;1.95;0.52;;;;;;;20.49;43.61;99290.41;5008590;28;97012;-78
2024/01/02 03:15:15;;;;;;;1.42;0.63;;;;;;;20.49;43.59;99285.13;5009044;28;97009;-78
2024/01/02 03:17:41;;;;;;;2.33;0.63;;;;;;;20.48;43.83;99275.47;4993897;28;96746;-78
2024/01/02 03:20:07;;;;;;;1.98;0.60;;;;;;;20.49;43.48;99271.03;5011581;28;97469;-78
2024/01/02 03:22:32;;;;;;;1.17;0.50;;;;;;;20.48;43.55;99262.25;5010645;27;99492;-78
2024/01/02 03:24:58;;;;;;;1.17;0.63;;;;;;;20.49;43.67;99263.09;5012252;28;97416;-78
2024/01/02 03:27:23;;;;;;;1.20;0.55;;;;;;;20.48;43.76;99256.06;5013127;28;96781;-78
2024/01/02 03:29:48;;;;;;;2.13;0.60;;;;;;;20.49;43.73;99247.19;5010195;28;113125;-78
2024/01/02 03:32:14;;;;;;;2.03;0.50;;;;;;;20.48;43.90;99234.88;5010470;28;97298;-78
2024/01/02 03:34:40;;;;;;;0.95;0.57;;;;;;;20.47;43.77;99212.84;5011192;28;97335;-78
2024/01/02 03:37:05;;;;;;;1.67;0.60;;;;;;;20.47;43.74;99202.25;5013402;28;97518;-78
2024/01/02 03:39:30;;;;;;;0.82;0.40;;;;;;;20.48;43.49;99184.56;4996406;28;96690;-78
2024/01/02 03:41:56;;;;;;;1.00;0.57;;;;;;;20.47;43.42;99170.47;5010609;28;125472;-78
2024/01/02 03:44:21;;;;;;;1.40;0.50;;;;;;;20.48;43.63;99171.31;5011128;28;107213;-78
2024/01/02 03:46:46;;;;;;;1.08;0.52;;;;;;;20.47;43.46;99165.19;5012821;28;96808;-78
2024/01/02 03:49:12;;;;;;;1.90;0.50;;;;;;;20.50;43.71;99164.16;5012003;28;111065;-78
2024/01/02 03:51:37;;;;;;;1.95;0.50;;;;;;;20.48;43.88;99171.31;5010216;28;97174;-78
2024/01/02 03:54:03;;;;;;;1.73;0.57;;;;;;;20.48;43.60;99148.34;5011571;28;96712;-78
2024/01/02 03:56:28;;;;;;;1.55;0.65;;;;;;;20.46;43.26;99142.31;5011923;28;96956;-78
2024/01/02 03:58:54;;;;;;;0.82;0.52;;;;;;;20.46;43.73;99131.69;5008057;28;97803;-78
2024/01/02 04:01:19;;;;;;;1.00;0.30;;;;;;;20.46;43.71;99129.06;5011043;28;127015;-78
2024/01/02 04:03:46;;;;;;;1.10;0.40;;;;;;;20.47;43.84;99141.34;5010636;28;116991;-78
2024/01/02 04:06:11;;;;;;;0.65;0.45;;;;;;;20.48;43.43;99128.94;5020752;28;96767;-78
2024/01/02 04:08:37;;;;;;;1.58;0.47;;;;;;;20.49;43.87;99125.38;5023652;28;96707;-78
2024/01/02 04:11:04;;;;;;;0.82;0.45;;;;;;;20.49;43.78;99120.06;5018128;28;96888;-78
2024/01/02 04:13:30;;;;;;;1.20;0.60;;;;;;;20.48;43.60;99113.94;5009358;28;97160;-78
2024/01/02 04:15:56;;;;;;;1.20;0.60;;;;;;;20.49;43.62;99114.78;4997859;28;96917;-78
2024/01/02 04:18:21;;;;;;;1.30;0.40;;;;;;;20.50;43.73;99108.56;4992266;28;96910;-78
2024/01/02 04:20:47;;;;;;;2.05;0.50;;;;;;;20.48;43.48;99098.03;4992172;28;98746;-78
2024/01/02 04:23:12;;;;;;;1.23;0.47;;;;;;;20.48;43.60;99099.81;5023197;28;96633;-78
2024/01/02 04:25:38;;;;;;;1.10;0.40;;;;;;;20.48;43.56;99087.44;5016370;28;96658;-78
2024/01/02 04:28:03;;;;;;;0.63;0.40;;;;;;;20.48;43.86;99083.91;5017351;27;126975;-78
2024/01/02 04:30:28;;;;;;;1.55;0.60;;;;;;;20.49;43.71;99085.66;5010039;28;97261;-78
2024/01/02 04:32:54;;;;;;;0.70;0.38;;;;;;;20.48;43.79;99081.28;5020582;28;117836;-78
2024/01/02 04:35:19;;;;;;;0.82;0.40;;;;;;;20.48;43.53;99081.28;5019608;27;96762;-78
2024/01/02 04:37:45;;;;;;;1.88;0.60;;;;;;;20.48;43.47;99076.84;5009291;28;115493;-78
2024/01/02 04:40:11;;;;;;;1.15;0.45;;;;;;;20.49;43.46;99093.59;5008538;28;98019;-78
2024/01/02 04:42:37;;;;;;;0.85;0.40;;;;;;;20.49;43.88;99096.25;5009083;28;97307;-78
2024/01/02 04:45:04;;;;;;;0.52;0.32;;;;;;;20.49;43.96;99086.50;5016581;28;97359;-78
2024/01/02 04:47:29;;;;;;;0.90;0.52;;;;;;;20.49;43.80;99085.66;5016802;28;97158;-78
2024/01/02 04:49:55;;;;;;;1.00;0.40;;;;;;;20.49;43.84;99073.25;4991846;28;100033;-78
2024/01/02 04:52:21;;;;;;;0.93;0.50;;;;;;;20.49;43.82;99075.06;5009315;28;96621;-78
2024/01/02 04:54:46;;;;;;;1.48;0.50;;;;;;;20.47;43.80;99069.00;5008393;28;96931;-78
2024/01/02 04:57:12;;;;;;;1.08;0.32;;;;;;;20.48;43.63;99063.63;5008854;28;96771;-78
2024/01/02 04:59:37;;;;;;;0.90;0.35;;;;;;;20.50;43.57;99063.53;5015736;28;97198;-78
2024/01/02 05:02:03;;;;;;;0.98;0.43;;;;;;;20.48;43.99;99055.66;5009133;28;97409;-78
2024/01/02 05:04:29;;;;;;;0.95;0.50;;;;;;;20.48;43.59;99055.66;4991015;28;97651;-78
2024/01/02 05:06:55;;;;;;;2.92;0.50;;;;;;;20.50;43.91;99063.53;5008521;28;97935;-78
2024/01/02 05:09:20;;;;;;;0.73;0.55;;;;;;;20.49;43.47;99061.81;5010213;28;97231;-78
2024/01/02 05:11:48;;;;;;;0.63;0.40;;;;;;;20.49;43.95;99064.47;5009526;28;97308;-78
2024/01/02 05:14:14;;;;;;;1.15;0.45;;;;;;;20.50;43.51;99060.88;5009074;28;96897;-78
2024/01/02 05:16:40;;;;;;;0.50;0.40;;;;;;;20.47;43.65;99053.94;5009568;28;97297;-78
2024/01/02 05:19:05;;;;;;;1.00;0.25;;;;;;;20.50;43.85;99055.59;5008300;28;97337;-78
2024/01/02 05:21:31;;;;;;;0.52;0.50;;;;;;;20.50;43.87;99055.59;4991776;28;97101;-78
2024/01/02 05:23:56;;;;;;;1.20;0.60;;;;;;;20.47;43.72;99050.47;5005205;28;97195;-78
2024/01/02 05:26:22;;;;;;;0.55;0.30;;;;;;;20.47;43.52;99063.69;5006815;28;125531;-78
2024/01/02 05:28:47;;;;;;;1.10;0.60;;;;;;;20.48;43.96;99065.38;5008593;28;126869;-78
2024/01/02 05:31:12;;;;;;;1.00;0.60;;;;;;;20.47;43.77;99067.19;5006452;28;118533;-78
2024/01/02 05:33:38;;;;;;;0.57;0.35;;;;;;;20.47;43.72;99059.25;5002661;28;96807;-78
2024/01/02 05:36:03;;;;;;;0.73;0.43;;;;;;;20.48;43.96;99039.78;5004141;28;97675;-78
2024/01/02 05:38:29;;;;;;;0.73;0.40;;;;;;;20.50;44.00;99039.69;5003562;28;96795;-78
2024/01/02 05:40:54;;;;;;;1.25;0.40;;;;;;;20.48;43.65;99044.19;5004830;28;119651;-78
2024/01/02 05:43:19;;;;;;;0.43;0.32;;;;;;;20.48;43.73;99047.72;5006533;28;96847;-78
2024/01/02 05:45:45;;;;;;;0.77;0.50;;;;;;;20.49;43.79;99040.63;5006310;28;97459;-78
2024/01/02 05:48:10;;;;;;;1.27;0.57;;;;;;;20.49;43.67;99040.63;4990502;28;105121;-78
2024/01/02 05:50:35;;;;;;;1.75;0.52;;;;;;;20.48;44.02;99031.84;5010293;28;96754;-78
2024/01/02 05:53:01;;;;;;;1.02;0.40;;;;;;;20.48;43.74;99038.91;5007877;28;96980;-78
2024/01/02 05:55:26;;;;;;;1.08;0.45;;;;;;;20.48;43.95;99042.44;5009869;28;101332;-78
2024/01/02 05:57:52;;;;;;;0.60;0.22;;;;;;;20.48;43.69;99052.16;5006803;28;102071;-78
2024/01/02 06:00:17;;;;;;;0.52;0.43;;;;;;;20.48;43.59;99050.38;5005577;28;117988;-78
2024/01/02 06:02:43;;;;;;;0.73;0.30;;;;;;;20.49;43.85;99064.47;5005667;28;97071;-78
2024/01/02 06:05:08;;;;;;;1.52;0.38;;;;;;;20.49;43.71;99061.81;5005141;28;116800;-78
2024/01/02 06:07:34;;;;;;;0.50;0.40;;;;;;;20.49;43.84;99070.59;5001872;28;110527;-78
2024/01/02 06:09:59;;;;;;;0.57;0.20;;;;;;;20.49;43.85;99065.31;5005503;28;97181;-78
2024/01/02 06:12:25;;;;;;;0.75;0.30;;;;;;;20.48;44.16;99060.09;5007742;28;97216;-78
2024/01/02 06:14:50;;;;;;;0.50;0.30;;;;;;;20.48;43.80;99057.44;5006819;28;97413;-78
2024/01/02 06:17:15;;;;;;;0.32;0.25;;;;;;;20.48;44.10;99073.34;5019959;28;117543;-78
2024/01/02 06:19:41;;;;;;;0.70;0.40;;;;;;;20.49;43.85;99083.00;5005298;28;97245;-78
2024/01/02 06:22:06;;;;;;;0.95;0.63;;;;;;;20.49;43.47;99073.25;5003449;28;97131;-78
2024/01/02 06:24:31;;;;;;;0.35;0.25;;;;;;;20.50;44.05;99063.53;5005270;28;123895;-78
2024/01/02 06:26:57;;;;;;;0.40;0.30;;;;;;;20.50;44.01;99066.19;5007726;28;127761;-78
2024/01/02 06:29:22;;;;;;;0.28;0.20;;;;;;;20.50;43.91;99074.13;4993307;28;119266;-78
2024/01/02 06:31:48;;;;;;;0.47;0.38;;;;;;;20.49;44.06;99078.53;5005765;28;97144;-78
2024/01/02 06:34:13;;;;;;;0.63;0.22;;;;;;;20.48;43.83;99090.09;5011137;28;97903;-78
2024/01/02 06:36:38;;;;;;;0.88;0.43;;;;;;;20.48;44.12;99087.44;5017256;28;124341;-78
2024/01/02 06:39:04;;;;;;;0.43;0.30;;;;;;;20.49;44.16;99098.88;5005004;27;115659;-78
2024/01/02 06:41:29;;;;;;;0.45;0.20;;;;;;;20.49;43.78;99105.03;5012102;28;97059;-78
2024/01/02 06:43:55;;;;;;;0.35;0.22;;;;;;;20.51;43.90;99092.56;5017587;28;126018;-78
2024/01/02 06:46:20;;;;;;;0.70;0.20;;;;;;;20.51;44.01;99097.00;5026965;28;97505;-78
2024/01/02 06:48:45;;;;;;;0.70;0.30;;;;;;;20.50;43.92;99109.41;5030149;27;116189;-78
2024/01/02 06:51:11;;;;;;;0.70;0.40;;;;;;;20.51;44.18;99104.94;5017216;27;97251;-78
2024/01/02 06:53:36;;;;;;;0.40;0.20;;;;;;;20.50;43.93;99097.97;5016629;28;122018;-78
2024/01/02 06:56:03;;;;;;;0.40;0.32;;;;;;;20.50;44.31;99111.19;5015667;27;106324;-78
2024/01/02 06:58:28;;;;;;;0.63;0.30;;;;;;;20.50;44.00;99117.34;5022109;27;98788;-78
2024/01/02 07:00:53;;;;;;;0.30;0.20;;;;;;;20.49;43.95;99123.56;5012262;28;96685;-78
2024/01/02 07:03:21;;;;;;;0.35;0.30;;;;;;;20.49;43.94;99123.56;5011799;28;103596;-78
2024/01/02 07:05:46;;;;;;;0.40;0.30;;;;;;;20.49;43.88;99130.66;5008464;28;96696;-78
2024/01/02 07:08:12;;;;;;;0.93;0.43;;;;;;;20.48;44.00;99129.81;5007401;28;97206;-78
2024/01/02 07:10:37;;;;;;;0.30;0.20;;;;;;;20.48;44.08;99124.53;5014138;28;116536;-78
2024/01/02 07:13:02;;;;;;;0.60;0.38;;;;;;;20.49;43.99;99114.78;5012451;28;126184;-78
2024/01/02 07:15:28;;;;;;;0.43;0.35;;;;;;;20.49;44.03;99125.38;5002570;28;99650;-78
2024/01/02 07:17:53;;;;;;;1.02;0.25;;;;;;;20.49;44.08;99125.38;5018669;27;115879;-78
2024/01/02 07:20:20;;;;;;;0.38;0.30;;;;;;;20.48;44.27;99132.47;5011798;28;115505;-78
2024/01/02 07:22:45;;;;;;;0.43;0.30;;;;;;;20.50;44.06;99148.28;5013656;28;97740;-78
2024/01/02 07:25:11;;;;;;;0.60;0.40;;;;;;;20.49;44.08;99138.59;5012498;28;98163;-78
2024/01/02 07:27:37;;;;;;;0.32;0.32;;;;;;;20.49;44.43;99143.91;5010391;28;96684;-79
2024/01/02 07:30:04;;;;;;;0.28;0.15;;;;;;;20.49;44.27;99141.25;5001829;28;97955;-78
2024/01/02 07:32:29;;;;;;;0.40;0.25;;;;;;;20.48;44.17;99153.66;5000268;28;96813;-78
2024/01/02 07:34:55;;;;;;;0.30;0.20;;;;;;;20.49;43.98;99154.50;5023397;27;98048;-78
2024/01/02 07:37:20;;;;;;;0.32;0.30;;;;;;;20.49;44.45;99159.78;4994416;28;97309;-78
2024/01/02 07:39:46;;;;;;;0.40;0.20;;;;;;;20.48;44.10;99169.53;5004014;27;116024;-78
2024/01/02 07:42:12;;;;;;;1.77;0.60;;;;;;;20.49;44.32;99170.38;5007679;28;126843;-78
2024/01/02 07:44:38;;;;;;;2.08;0.32;;;;;;;20.48;44.06;99166.91;4988420;28;97921;-78
2024/01/02 07:47:03;;;;;;;0.70;0.32;;;;;;;20.47;44.22;99175.78;5016352;28;97722;-78
2024/01/02 07:49:29;;;;;;;0.90;0.40;;;;;;;20.50;44.20;99190.66;5005789;28;96789;-78
2024/01/02 07:51:54;;;;;;;1.52;0.52;;;;;;;20.49;44.09;99194.22;5003984;28;98197;-78
2024/01/02 07:54:20;;;;;;;0.63;0.30;;;;;;;20.49;44.13;99188.94;5003399;28;97864;-78
2024/01/02 07:56:46;;;;;;;1.73;0.57;;;;;;;20.49;44.06;99202.16;5006153;28;96882;-78
2024/01/02 07:59:15;;;;;;;0.90;0.43;;;;;;;20.50;44.47;99203.91;5003147;28;97660;-78
2024/01/02 08:01:41;;;;;;;0.38;0.35;;;;;;;20.50;44.50;99211.84;5007000;28;98190;-78
2024/01/02 08:04:06;;;;;;;0.45;0.45;;;;;;;20.50;44.16;99206.53;5005675;28;97481;-78
2024/01/02 08:06:32;;;;;;;2.35;0.50;;;;;;;20.50;44.34;99223.28;5004572;28;99157;-78
2024/01/02 08:08:57;;;;;;;0.82;0.50;;;;;;;20.50;44.38;99220.63;4995811;28;112524;-78
2024/01/02 08:11:22;;;;;;;0.68;0.32;;;;;;;20.51;44.58;99216.19;5005947;28;119864;-78
2024/01/02 08:13:48;;;;;;;0.40;0.40;;;;;;;20.49;44.53;99212.78;5003596;28;97882;-78
2024/01/02 08:16:13;;;;;;;1.70;0.40;;;;;;;20.49;44.54;99208.31;5007434;28;97025;-78
2024/01/02 08:18:43;;;;;;;0.90;0.30;;;;;;;20.48;44.35;99201.31;5006752;28;96878;-78
2024/01/02 08:21:08;;;;;;;0.73;0.30;;;;;;;20.47;44.38;99204.91;5008835;28;97193;-77
2024/01/02 08:23:35;;;;;;;1.13;0.30;;;;;;;20.48;44.57;99203.97;5009368;28;125398;-78
2024/01/02 08:26:02;;;;;;;0.47;0.47;;;;;;;20.48;44.48;99211.91;4992699;28;96823;-78
2024/01/02 08:28:28;;;;;;;0.70;0.47;;;;;;;20.48;44.66;99213.69;5010083;28;96721;-78
2024/01/02 08:30:53;;;;;;;0.57;0.30;;;;;;;20.48;44.42;99213.69;5010073;28;97626;-78
2024/01/02 08:33:19;;;;;;;0.80;0.50;;;;;;;20.46;44.63;99211.16;5009357;28;96746;-78
2024/01/02 08:35:44;;;;;;;0.68;0.30;;;;;;;20.45;44.46;99209.44;4988478;28;96802;-78
2024/01/02 08:38:09;;;;;;;1.50;0.30;;;;;;;20.45;44.61;99211.22;4989616;28;117759;-78
2024/01/02 08:40:35;;;;;;;0.90;0.40;;;;;;;20.45;44.49;99205.94;5009973;28;126786;-78
2024/01/02 08:43:01;;;;;;;1.27;0.57;;;;;;;20.43;44.67;99213.97;5008807;28;97278;-78
2024/01/02 08:45:27;;;;;;;1.20;0.52;;;;;;;20.43;44.63;99203.38;5011523;28;96782;-78
2024/01/02 08:47:52;;;;;;;1.08;0.50;;;;;;;20.41;44.60;99212.31;5007652;28;97389;-78
2024/01/02 08:50:18;;;;;;;0.52;0.32;;;;;;;20.40;44.58;99195.59;5005165;28;97481;-78
2024/01/02 08:52:47;;;;;;;0.98;0.40;;;;;;;20.42;44.34;99200.78;5007905;28;111517;-78
2024/01/02 08:55:13;;;;;;;1.77;0.45;;;;;;;20.41;44.47;99196.44;5009370;28;97420;-78
2024/01/02 08:57:38;;;;;;;1.05;0.28;;;;;;;20.41;44.47;99186.72;5010660;28;96775;-78
2024/01/02 09:00:07;;;;;;;0.95;0.43;;;;;;;20.43;44.53;99191.94;5007253;28;127096;-78
2024/01/02 09:02:32;;;;;;;0.40;0.40;;;;;;;20.44;44.54;99189.16;5008861;28;97428;-78
2024/01/02 09:04:58;;;;;;;1.27;0.40;;;;;;;20.44;44.72;99190.97;4999974;28;96782;-78
2024/01/02 09:07:23;;;;;;;1.15;0.40;;;;;;;20.45;44.54;99187.41;5020336;27;96966;-78
2024/01/02 09:09:49;;;;;;;1.10;0.52;;;;;;;20.46;44.43;99184.66;4996767;28;126555;-78
2024/01/02 09:12:15;;;;;;;0.77;0.47;;;;;;;20.47;44.68;99173.13;4992367;28;98236;-78
2024/01/02 09:14:40;;;;;;;0.63;0.45;;;;;;;20.48;44.43;99179.25;5008809;28;96665;-78
2024/01/02 09:17:05;;;;;;;2.35;0.43;;;;;;;20.51;44.49;99176.47;5002844;28;97236;-78
2024/01/02 09:19:32;;;;;;;1.80;0.82;;;;;;;20.49;44.27;99173.88;5015566;28;126749;-78
2024/01/02 09:21:58;;;;;;;1.25;0.52;;;;;;;20.48;44.59;99177.50;5015342;27;99946;-78
2024/01/02 09:24:23;;;;;;;0.90;0.73;;;;;;;20.49;44.49;99157.16;5007480;28;97085;-78
2024/01/02 09:26:51;;;;;;;1.38;0.60;;;;;;;20.50;44.45;99166.81;5008518;28;96852;-78
2024/01/02 09:29:17;;;;;;;2.13;0.60;;;;;;;20.50;44.54;99165.00;5001032;28;98181;-78
2024/01/02 09:31:43;;;;;;;1.00;0.35;;;;;;;20.50;44.60;99172.13;4989983;28;96788;-78
2024/01/02 09:34:10;;;;;;;1.23;0.47;;;;;;;20.49;44.75;99163.28;5000475;28;97017;-78
2024/01/02 09:36:35;;;;;;;0.82;0.40;;;;;;;20.50;44.39;99159.72;4998647;28;96747;-78
2024/01/02 09:39:01;;;;;;;1.10;0.50;;;;;;;20.50;44.36;99164.16;5001927;28;96609;-78
2024/01/02 09:41:47;;;;;;;3.30;0.47;;;;;;;20.45;44.64;99164.41;4973761;28;99280;-78
2024/01/02 09:44:52;;;;;;;0.52;0.30;;;;;;;20.48;44.68;99166.91;4999580;28;96819;-78
2024/01/02 09:47:47;;;;;;;0.40;0.32;;;;;;;20.46;44.51;99166.13;5008690;28;96774;-78
2024/01/02 09:50:31;;;;;;;1.15;0.57;;;;;;;20.45;44.78;99161.75;5000149;28;98030;-78
2024/01/02 09:53:23;;;;;;;0.43;0.43;;;;;;;20.45;44.45;99164.41;5004677;28;99493;-78
2024/01/02 09:55:55;;;;;;;1.55;0.73;;;;;;;20.47;44.77;99169.63;5004113;28;96711;-78
2024/01/02 09:58:45;;;;;;;0.77;0.43;;;;;;;20.46;44.79;99173.19;4999933;28;96840;-78
2024/01/02 10:01:32;;;;;;;0.88;0.45;;;;;;;20.45;44.69;99166.22;5007026;28;100550;-78
2024/01/02 10:04:07;;;;;;;1.02;0.60;;;;;;;20.46;44.65;99167.91;4999290;28;98095;-78
2024/01/02 10:07:10;;;;;;;1.05;0.60;;;;;;;20.47;44.66;99170.47;5003038;28;97260;-78
2024/01/02 10:10:00;;;;;;;0.95;0.50;;;;;;;20.47;44.67;99162.53;4999375;28;96760;-78
2024/01/02 10:12:34;;;;;;;0.60;0.30;;;;;;;20.49;44.76;99157.16;5005723;28;96740;-78
2024/01/02 10:15:29;;;;;;;1.15;0.52;;;;;;;20.49;44.70;99165.09;4980992;28;100480;-78
2024/01/02 10:18:40;;;;;;;1.08;0.63;;;;;;;20.46;44.85;99157.31;5005683;28;97534;-78
2024/01/02 10:21:29;;;;;;;1.27;0.50;;;;;;;20.46;44.57;99162.59;5021404;27;96709;-78
2024/01/02 10:24:08;;;;;;;1.35;0.50;;;;;;;20.47;45.02;99156.38;5000414;28;96723;-78
2024/01/02 10:26:44;;;;;;;1.05;0.30;;;;;;;20.48;44.74;99156.31;4996719;28;98547;-78
2024/01/02 10:29:17;;;;;;;1.10;0.50;;;;;;;20.49;44.52;99147.41;5021593;27;97551;-78
2024/01/02 10:32:04;;;;;;;1.83;0.57;;;;;;;20.48;44.68;99139.53;5006855;28;97893;-78
2024/01/02 10:34:37;;;;;;;1.15;0.50;;;;;;;20.48;44.55;99136.88;5000368;28;96667;-78
2024/01/02 10:37:05;;;;;;;0.90;0.57;;;;;;;20.49;44.77;99138.59;5013078;28;96865;-78
2024/01/02 10:39:40;;;;;;;0.52;0.47;;;;;;;20.48;44.91;99128.94;5005429;28;97106;-78
2024/01/02 10:42:30;;;;;;;0.68;0.35;;;;;;;20.46;44.91;99125.53;4989288;28;97297;-78
2024/01/02 10:45:16;;;;;;;1.15;0.47;;;;;;;20.46;45.06;99122.88;5002034;28;98121;-78
2024/01/02 10:47:48;;;;;;;0.88;0.50;;;;;;;20.49;45.03;99115.63;5005097;28;96833;-78
2024/01/02 10:50:23;;;;;;;0.77;0.32;;;;;;;20.49;44.82;99102.38;5000832;28;96775;-78
2024/01/02 10:53:06;;;;;;;1.35;0.50;;;;;;;20.48;44.70;99103.34;5004209;28;96569;-78
2024/01/02 10:55:55;;;;;;;0.55;0.50;;;;;;;20.48;44.84;99100.69;4999050;28;96942;-78
2024/01/02 10:58:23;;;;;;;0.60;0.40;;;;;;;20.50;44.62;99105.91;5007088;28;97151;-78
2024/01/02 11:01:03;;;;;;;0.98;0.40;;;;;;;20.48;44.98;99105.09;5002377;28;96831;-78
2024/01/02 11:03:34;;;;;;;0.93;0.55;;;;;;;20.49;44.79;99107.69;4997572;28;98174;-78
2024/01/02 11:06:20;;;;;;;0.73;0.40;;;;;;;20.50;44.85;99101.44;5006257;28;100613;-78
2024/01/02 11:09:29;;;;;;;0.88;0.52;;;;;;;20.49;44.66;99099.72;5000562;28;115557;-78
2024/01/02 11:11:57;;;;;;;1.63;0.52;;;;;;;20.53;44.88;99093.34;5008083;28;97141;-78
2024/01/02 11:14:25;;;;;;;0.73;0.50;;;;;;;20.53;45.02;99097.75;5007486;28;97784;-78
2024/01/02 11:16:53;;;;;;;0.73;0.30;;;;;;;20.51;44.80;99095.19;5010311;28;96836;-78
2024/01/02 11:19:29;;;;;;;1.10;0.30;;;;;;;20.48;45.01;99094.50;5011550;28;98304;-78
2024/01/02 11:22:04;;;;;;;1.42;0.60;;;;;;;20.48;44.81;99092.75;5011169;28;97121;-78
2024/01/02 11:24:31;;;;;;;0.77;0.52;;;;;;;20.51;44.98;99079.31;5013496;28;97401;-78
2024/01/02 11:27:00;;;;;;;1.35;0.50;;;;;;;20.50;44.61;99080.25;4998037;28;97394;-78
2024/01/02 11:29:33;;;;;;;0.70;0.50;;;;;;;20.51;44.78;99081.97;5011752;28;97491;-78
2024/01/02 11:32:09;;;;;;;0.70;0.47;;;;;;;20.50;45.06;99069.66;5010429;28;96792;-78
2024/01/02 11:34:49;;;;;;;0.47;0.35;;;;;;;20.50;44.68;99063.53;4994173;28;96992;-78